Denver, CO

8:31 AM MST on December 05, 2016 (GMT -0700)
Geography and Env. Sciences, CU Denver | | Change Station

Elev 5225 ft 39.75 °N, 105.00 °W | Updated 1 minute ago

Mostly Cloudy
Mostly Cloudy
49.7 °F
Feels Like 50 °F
N
0.0
Wind Variable Wind from SSE
Gusts 0.0 mph

Today
High -- | Low -- °F
--% Chance of Precip.
Yesterday
High -- | Low -- °F
Precip. -- in
Pressure 29.62 in
Visibility 20.0 miles
Clouds Mostly Cloudy 8000 ft
Mostly Cloudy 12000 ft
Windchill 50 °F
Dew Point 26 °F
Humidity 40%
Rainfall 0.00 in
Snow Depth Not available.
7:06 AM 4:35 PM
Waxing Crescent, 32% visible
METAR KBJC 051447Z 28016G21KT 20SM BKN080 BKN120 09/M05 A2962
Pressure 29.62 in
Visibility 20.0 miles
Clouds Mostly Cloudy 8000 ft
Mostly Cloudy 12000 ft
Windchill 50 °F
Dew Point 26 °F
Humidity 40%
Rainfall 0.00 in
Snow Depth Not available.
7:06 AM 4:35 PM
Waxing Crescent, 32% visible
METAR KBJC 051447Z 28016G21KT 20SM BKN080 BKN120 09/M05 A2962

10-Day Weather Forecast

Almanac

Astronomy

Dec. 05, 2016 Rise Set
Actual Time
Civil Twilight
Nautical Twilight
Astronomical Twilight
Moon
Length of Visible Light
Length of Day
Tomorrow will be .
, % of the Moon is Illuminated

Today's Extremes

State Highs State Lows

Community

WunderPhotos

Upload Photos

1,955,790 photos uploaded!

WunderBlog® & News

Nearby

Air Quality

  Air Quality AQ Index Pollutant
Not available.

Snow Depth

Station Depth Elevation

Earthquake Activity

City Distance Mag. Time & Date
Minimum magnitude displayed is 2.5.

Coastal Water Temperatures

Place Temperature

Stations

Nearby Weather Stations

Station Location Temp. Windchill Dew Point Humidity Wind Precip. Elev Updated Type
                   

Watches & Warnings

There are currently no watches in effect.